sensor_id;sensor_type;location;lat;lon;timestamp;P1;durP1;ratioP1;P2;durP2;ratioP2
14975;SDS011;7584;60.468;25.126;2023-02-28T00:00:07;1.10;;;0.30;;
14975;SDS011;7584;60.468;25.126;2023-02-28T00:02:39;1.73;;;0.50;;
14975;SDS011;7584;60.468;25.126;2023-02-28T00:05:05;0.57;;;0.40;;
14975;SDS011;7584;60.468;25.126;2023-02-28T00:07:31;0.73;;;0.40;;
14975;SDS011;7584;60.468;25.126;2023-02-28T00:09:57;0.60;;;0.40;;
14975;SDS011;7584;60.468;25.126;2023-02-28T00:12:22;0.70;;;0.40;;
14975;SDS011;7584;60.468;25.126;2023-02-28T00:14:48;0.57;;;0.37;;
14975;SDS011;7584;60.468;25.126;2023-02-28T00:17:13;3.43;;;0.60;;
14975;SDS011;7584;60.468;25.126;2023-02-28T00:19:39;1.40;;;0.40;;
14975;SDS011;7584;60.468;25.126;2023-02-28T00:22:04;0.60;;;0.40;;
14975;SDS011;7584;60.468;25.126;2023-02-28T00:24:29;2.27;;;0.37;;
14975;SDS011;7584;60.468;25.126;2023-02-28T00:26:54;0.90;;;0.40;;
14975;SDS011;7584;60.468;25.126;2023-02-28T00:29:20;0.30;;;0.30;;
14975;SDS011;7584;60.468;25.126;2023-02-28T00:31:45;0.67;;;0.40;;
14975;SDS011;7584;60.468;25.126;2023-02-28T00:34:13;0.87;;;0.30;;
14975;SDS011;7584;60.468;25.126;2023-02-28T00:36:38;0.73;;;0.40;;
14975;SDS011;7584;60.468;25.126;2023-02-28T00:39:05;1.40;;;0.50;;
14975;SDS011;7584;60.468;25.126;2023-02-28T00:41:31;1.27;;;0.30;;
14975;SDS011;7584;60.468;25.126;2023-02-28T00:43:56;1.87;;;0.30;;
14975;SDS011;7584;60.468;25.126;2023-02-28T00:46:21;3.03;;;0.30;;
14975;SDS011;7584;60.468;25.126;2023-02-28T00:48:47;1.37;;;0.40;;
14975;SDS011;7584;60.468;25.126;2023-02-28T00:51:12;1.07;;;0.40;;
14975;SDS011;7584;60.468;25.126;2023-02-28T00:53:37;2.07;;;0.30;;
14975;SDS011;7584;60.468;25.126;2023-02-28T00:56:03;0.40;;;0.30;;
14975;SDS011;7584;60.468;25.126;2023-02-28T00:58:28;1.10;;;0.40;;
14975;SDS011;7584;60.468;25.126;2023-02-28T01:00:54;0.67;;;0.30;;
14975;SDS011;7584;60.468;25.126;2023-02-28T01:03:19;1.57;;;0.40;;
14975;SDS011;7584;60.468;25.126;2023-02-28T01:05:45;1.60;;;0.50;;
14975;SDS011;7584;60.468;25.126;2023-02-28T01:08:11;0.40;;;0.40;;
14975;SDS011;7584;60.468;25.126;2023-02-28T01:10:36;0.80;;;0.40;;
14975;SDS011;7584;60.468;25.126;2023-02-28T01:13:02;0.50;;;0.40;;
14975;SDS011;7584;60.468;25.126;2023-02-28T01:15:32;0.80;;;0.40;;
14975;SDS011;7584;60.468;25.126;2023-02-28T01:17:59;1.50;;;0.30;;
14975;SDS011;7584;60.468;25.126;2023-02-28T01:20:24;0.53;;;0.30;;
14975;SDS011;7584;60.468;25.126;2023-02-28T01:22:49;0.67;;;0.30;;
14975;SDS011;7584;60.468;25.126;2023-02-28T01:25:14;0.67;;;0.40;;
14975;SDS011;7584;60.468;25.126;2023-02-28T01:27:40;0.67;;;0.30;;
14975;SDS011;7584;60.468;25.126;2023-02-28T01:30:06;0.47;;;0.40;;
14975;SDS011;7584;60.468;25.126;2023-02-28T01:32:31;1.53;;;0.40;;
14975;SDS011;7584;60.468;25.126;2023-02-28T01:34:57;0.37;;;0.30;;
14975;SDS011;7584;60.468;25.126;2023-02-28T01:37:22;1.00;;;0.30;;
14975;SDS011;7584;60.468;25.126;2023-02-28T01:39:47;0.23;;;0.23;;
14975;SDS011;7584;60.468;25.126;2023-02-28T01:42:13;0.80;;;0.40;;
14975;SDS011;7584;60.468;25.126;2023-02-28T01:47:23;1.03;;;0.40;;
14975;SDS011;7584;60.468;25.126;2023-02-28T01:49:50;0.37;;;0.27;;
14975;SDS011;7584;60.468;25.126;2023-02-28T01:52:16;0.40;;;0.37;;
14975;SDS011;7584;60.468;25.126;2023-02-28T01:54:43;0.30;;;0.30;;
14975;SDS011;7584;60.468;25.126;2023-02-28T01:57:11;1.40;;;0.30;;
14975;SDS011;7584;60.468;25.126;2023-02-28T02:00:21;1.80;;;0.30;;
14975;SDS011;7584;60.468;25.126;2023-02-28T02:02:29;1.07;;;0.40;;
14975;SDS011;7584;60.468;25.126;2023-02-28T02:05:00;0.83;;;0.20;;
14975;SDS011;7584;60.468;25.126;2023-02-28T02:07:29;0.53;;;0.20;;
14975;SDS011;7584;60.468;25.126;2023-02-28T02:10:10;0.63;;;0.40;;
14975;SDS011;7584;60.468;25.126;2023-02-28T02:15:07;1.27;;;0.40;;
14975;SDS011;7584;60.468;25.126;2023-02-28T02:17:39;0.40;;;0.30;;
14975;SDS011;7584;60.468;25.126;2023-02-28T02:20:16;0.27;;;0.20;;
14975;SDS011;7584;60.468;25.126;2023-02-28T02:40:33;1.03;;;0.30;;
14975;SDS011;7584;60.468;25.126;2023-02-28T02:45:50;0.43;;;0.20;;
14975;SDS011;7584;60.468;25.126;2023-02-28T02:48:18;0.43;;;0.23;;
14975;SDS011;7584;60.468;25.126;2023-02-28T02:50:54;0.67;;;0.33;;
14975;SDS011;7584;60.468;25.126;2023-02-28T02:53:22;1.63;;;0.50;;
14975;SDS011;7584;60.468;25.126;2023-02-28T02:56:06;0.53;;;0.27;;
14975;SDS011;7584;60.468;25.126;2023-02-28T02:58:35;0.40;;;0.40;;
14975;SDS011;7584;60.468;25.126;2023-02-28T03:01:07;0.60;;;0.40;;
14975;SDS011;7584;60.468;25.126;2023-02-28T03:03:34;0.20;;;0.20;;
14975;SDS011;7584;60.468;25.126;2023-02-28T03:06:00;0.50;;;0.30;;
14975;SDS011;7584;60.468;25.126;2023-02-28T03:08:28;0.80;;;0.30;;
14975;SDS011;7584;60.468;25.126;2023-02-28T03:11:00;0.30;;;0.30;;
14975;SDS011;7584;60.468;25.126;2023-02-28T03:13:37;0.67;;;0.60;;
14975;SDS011;7584;60.468;25.126;2023-02-28T03:26:07;0.40;;;0.27;;
14975;SDS011;7584;60.468;25.126;2023-02-28T03:28:43;0.30;;;0.20;;
14975;SDS011;7584;60.468;25.126;2023-02-28T03:33:50;0.30;;;0.27;;
14975;SDS011;7584;60.468;25.126;2023-02-28T03:36:20;0.30;;;0.30;;
14975;SDS011;7584;60.468;25.126;2023-02-28T03:39:21;0.73;;;0.30;;
14975;SDS011;7584;60.468;25.126;2023-02-28T03:41:42;0.40;;;0.30;;
14975;SDS011;7584;60.468;25.126;2023-02-28T03:44:11;0.93;;;0.30;;
14975;SDS011;7584;60.468;25.126;2023-02-28T03:46:41;0.47;;;0.30;;
14975;SDS011;7584;60.468;25.126;2023-02-28T03:49:11;0.50;;;0.30;;
14975;SDS011;7584;60.468;25.126;2023-02-28T03:51:38;0.50;;;0.30;;
14975;SDS011;7584;60.468;25.126;2023-02-28T03:54:06;0.43;;;0.30;;
14975;SDS011;7584;60.468;25.126;2023-02-28T03:57:10;1.17;;;0.40;;
14975;SDS011;7584;60.468;25.126;2023-02-28T03:59:37;0.50;;;0.40;;
14975;SDS011;7584;60.468;25.126;2023-02-28T04:02:03;0.57;;;0.40;;
14975;SDS011;7584;60.468;25.126;2023-02-28T04:04:28;0.77;;;0.30;;
14975;SDS011;7584;60.468;25.126;2023-02-28T04:06:53;0.60;;;0.30;;
14975;SDS011;7584;60.468;25.126;2023-02-28T04:09:26;0.60;;;0.30;;
14975;SDS011;7584;60.468;25.126;2023-02-28T04:11:51;1.57;;;0.40;;
14975;SDS011;7584;60.468;25.126;2023-02-28T04:14:17;1.30;;;0.30;;
14975;SDS011;7584;60.468;25.126;2023-02-28T04:16:43;0.30;;;0.20;;
14975;SDS011;7584;60.468;25.126;2023-02-28T04:19:09;0.50;;;0.30;;
14975;SDS011;7584;60.468;25.126;2023-02-28T04:21:35;1.20;;;0.30;;
14975;SDS011;7584;60.468;25.126;2023-02-28T04:24:01;1.87;;;0.40;;
14975;SDS011;7584;60.468;25.126;2023-02-28T04:26:30;0.30;;;0.23;;
14975;SDS011;7584;60.468;25.126;2023-02-28T04:28:55;0.30;;;0.20;;
14975;SDS011;7584;60.468;25.126;2023-02-28T04:31:21;0.13;;;0.13;;
14975;SDS011;7584;60.468;25.126;2023-02-28T04:33:46;0.60;;;0.30;;
14975;SDS011;7584;60.468;25.126;2023-02-28T04:36:11;0.30;;;0.27;;
14975;SDS011;7584;60.468;25.126;2023-02-28T04:38:38;0.43;;;0.17;;
14975;SDS011;7584;60.468;25.126;2023-02-28T04:41:04;0.67;;;0.33;;
14975;SDS011;7584;60.468;25.126;2023-02-28T04:43:30;0.40;;;0.30;;
14975;SDS011;7584;60.468;25.126;2023-02-28T04:45:56;0.60;;;0.20;;
14975;SDS011;7584;60.468;25.126;2023-02-28T04:48:24;1.03;;;0.30;;
14975;SDS011;7584;60.468;25.126;2023-02-28T04:50:50;0.83;;;0.43;;
14975;SDS011;7584;60.468;25.126;2023-02-28T04:53:16;1.27;;;0.30;;
14975;SDS011;7584;60.468;25.126;2023-02-28T04:55:42;0.50;;;0.30;;
14975;SDS011;7584;60.468;25.126;2023-02-28T04:58:07;0.50;;;0.30;;
14975;SDS011;7584;60.468;25.126;2023-02-28T05:00:32;1.37;;;0.40;;
14975;SDS011;7584;60.468;25.126;2023-02-28T05:02:59;1.43;;;0.67;;
14975;SDS011;7584;60.468;25.126;2023-02-28T05:05:24;0.67;;;0.20;;
14975;SDS011;7584;60.468;25.126;2023-02-28T05:07:49;0.37;;;0.27;;
14975;SDS011;7584;60.468;25.126;2023-02-28T05:10:14;2.10;;;0.30;;
14975;SDS011;7584;60.468;25.126;2023-02-28T05:12:40;2.20;;;0.60;;
14975;SDS011;7584;60.468;25.126;2023-02-28T05:15:05;0.47;;;0.30;;
14975;SDS011;7584;60.468;25.126;2023-02-28T05:17:31;0.97;;;0.27;;
14975;SDS011;7584;60.468;25.126;2023-02-28T05:19:56;0.40;;;0.30;;
14975;SDS011;7584;60.468;25.126;2023-02-28T05:22:21;0.70;;;0.27;;
14975;SDS011;7584;60.468;25.126;2023-02-28T05:24:47;1.03;;;0.40;;
14975;SDS011;7584;60.468;25.126;2023-02-28T05:27:12;0.57;;;0.30;;
14975;SDS011;7584;60.468;25.126;2023-02-28T05:29:37;0.47;;;0.30;;
14975;SDS011;7584;60.468;25.126;2023-02-28T05:32:08;3.03;;;0.60;;
14975;SDS011;7584;60.468;25.126;2023-02-28T05:34:33;3.30;;;0.67;;
14975;SDS011;7584;60.468;25.126;2023-02-28T05:36:59;0.80;;;0.40;;
14975;SDS011;7584;60.468;25.126;2023-02-28T05:39:24;0.50;;;0.40;;
14975;SDS011;7584;60.468;25.126;2023-02-28T05:41:49;3.07;;;0.40;;
14975;SDS011;7584;60.468;25.126;2023-02-28T05:44:15;3.47;;;0.67;;
14975;SDS011;7584;60.468;25.126;2023-02-28T05:46:40;0.70;;;0.30;;
14975;SDS011;7584;60.468;25.126;2023-02-28T05:49:08;0.63;;;0.30;;
14975;SDS011;7584;60.468;25.126;2023-02-28T05:51:34;1.70;;;0.60;;
14975;SDS011;7584;60.468;25.126;2023-02-28T05:54:01;1.37;;;0.50;;
14975;SDS011;7584;60.468;25.126;2023-02-28T05:56:26;0.40;;;0.30;;
14975;SDS011;7584;60.468;25.126;2023-02-28T05:58:51;1.73;;;0.40;;
14975;SDS011;7584;60.468;25.126;2023-02-28T06:04:01;1.03;;;0.40;;
14975;SDS011;7584;60.468;25.126;2023-02-28T06:06:27;0.90;;;0.40;;
14975;SDS011;7584;60.468;25.126;2023-02-28T06:08:52;2.07;;;0.50;;
14975;SDS011;7584;60.468;25.126;2023-02-28T06:11:18;0.53;;;0.43;;
14975;SDS011;7584;60.468;25.126;2023-02-28T06:13:45;1.23;;;0.40;;
14975;SDS011;7584;60.468;25.126;2023-02-28T06:16:11;1.50;;;0.47;;
14975;SDS011;7584;60.468;25.126;2023-02-28T06:18:36;1.30;;;0.60;;
14975;SDS011;7584;60.468;25.126;2023-02-28T06:21:01;3.43;;;0.50;;
14975;SDS011;7584;60.468;25.126;2023-02-28T06:23:27;1.97;;;0.60;;
14975;SDS011;7584;60.468;25.126;2023-02-28T06:25:52;2.30;;;2.10;;
14975;SDS011;7584;60.468;25.126;2023-02-28T06:28:18;1.10;;;0.60;;
14975;SDS011;7584;60.468;25.126;2023-02-28T06:30:43;0.50;;;0.40;;
14975;SDS011;7584;60.468;25.126;2023-02-28T06:33:09;2.83;;;0.77;;
14975;SDS011;7584;60.468;25.126;2023-02-28T06:35:34;1.30;;;0.50;;
14975;SDS011;7584;60.468;25.126;2023-02-28T06:38:00;2.10;;;0.40;;
14975;SDS011;7584;60.468;25.126;2023-02-28T06:40:25;3.03;;;0.63;;
14975;SDS011;7584;60.468;25.126;2023-02-28T06:42:51;0.77;;;0.40;;
14975;SDS011;7584;60.468;25.126;2023-02-28T06:45:16;1.13;;;0.73;;
14975;SDS011;7584;60.468;25.126;2023-02-28T06:47:42;2.20;;;0.50;;
14975;SDS011;7584;60.468;25.126;2023-02-28T06:50:08;0.53;;;0.40;;
14975;SDS011;7584;60.468;25.126;2023-02-28T06:52:34;3.40;;;0.33;;
14975;SDS011;7584;60.468;25.126;2023-02-28T06:55:01;1.93;;;0.40;;
14975;SDS011;7584;60.468;25.126;2023-02-28T06:57:29;1.20;;;0.50;;
14975;SDS011;7584;60.468;25.126;2023-02-28T06:59:58;1.10;;;0.50;;
14975;SDS011;7584;60.468;25.126;2023-02-28T07:02:24;4.40;;;0.60;;
14975;SDS011;7584;60.468;25.126;2023-02-28T07:04:50;0.50;;;0.40;;
14975;SDS011;7584;60.468;25.126;2023-02-28T07:07:15;1.40;;;0.63;;
14975;SDS011;7584;60.468;25.126;2023-02-28T07:09:40;1.93;;;0.50;;
14975;SDS011;7584;60.468;25.126;2023-02-28T07:12:06;1.30;;;0.50;;
14975;SDS011;7584;60.468;25.126;2023-02-28T07:14:31;3.90;;;0.90;;
14975;SDS011;7584;60.468;25.126;2023-02-28T07:16:56;1.10;;;0.47;;
14975;SDS011;7584;60.468;25.126;2023-02-28T07:19:22;1.03;;;0.40;;
14975;SDS011;7584;60.468;25.126;2023-02-28T07:21:47;2.63;;;0.50;;
14975;SDS011;7584;60.468;25.126;2023-02-28T07:24:12;1.77;;;0.80;;
14975;SDS011;7584;60.468;25.126;2023-02-28T07:26:40;0.90;;;0.40;;
14975;SDS011;7584;60.468;25.126;2023-02-28T07:29:06;1.97;;;0.40;;
14975;SDS011;7584;60.468;25.126;2023-02-28T07:31:31;1.07;;;0.50;;
14975;SDS011;7584;60.468;25.126;2023-02-28T07:33:56;6.27;;;2.20;;
14975;SDS011;7584;60.468;25.126;2023-02-28T07:36:22;0.90;;;0.60;;
14975;SDS011;7584;60.468;25.126;2023-02-28T07:38:47;1.17;;;0.43;;
14975;SDS011;7584;60.468;25.126;2023-02-28T07:41:15;0.93;;;0.40;;
14975;SDS011;7584;60.468;25.126;2023-02-28T07:43:40;2.47;;;0.60;;
14975;SDS011;7584;60.468;25.126;2023-02-28T07:46:07;2.67;;;0.40;;
14975;SDS011;7584;60.468;25.126;2023-02-28T07:48:32;1.87;;;0.70;;
14975;SDS011;7584;60.468;25.126;2023-02-28T07:50:58;1.63;;;0.70;;
14975;SDS011;7584;60.468;25.126;2023-02-28T07:53:24;2.57;;;0.67;;
14975;SDS011;7584;60.468;25.126;2023-02-28T07:55:49;3.67;;;1.07;;
14975;SDS011;7584;60.468;25.126;2023-02-28T07:58:14;36.03;;;3.57;;
14975;SDS011;7584;60.468;25.126;2023-02-28T08:00:40;2.47;;;0.57;;
14975;SDS011;7584;60.468;25.126;2023-02-28T08:03:05;10.47;;;1.90;;
14975;SDS011;7584;60.468;25.126;2023-02-28T08:05:30;4.97;;;1.20;;
14975;SDS011;7584;60.468;25.126;2023-02-28T08:07:55;5.73;;;1.07;;
14975;SDS011;7584;60.468;25.126;2023-02-28T08:10:21;6.87;;;1.03;;
14975;SDS011;7584;60.468;25.126;2023-02-28T08:12:46;10.03;;;1.63;;
14975;SDS011;7584;60.468;25.126;2023-02-28T08:15:12;13.97;;;1.40;;
14975;SDS011;7584;60.468;25.126;2023-02-28T08:17:37;14.30;;;2.20;;
14975;SDS011;7584;60.468;25.126;2023-02-28T08:20:03;7.27;;;1.20;;
14975;SDS011;7584;60.468;25.126;2023-02-28T08:22:29;9.13;;;2.23;;
14975;SDS011;7584;60.468;25.126;2023-02-28T08:24:54;5.00;;;1.80;;
14975;SDS011;7584;60.468;25.126;2023-02-28T08:27:19;4.50;;;1.20;;
14975;SDS011;7584;60.468;25.126;2023-02-28T08:29:45;5.53;;;1.20;;
14975;SDS011;7584;60.468;25.126;2023-02-28T08:32:10;6.00;;;1.63;;
14975;SDS011;7584;60.468;25.126;2023-02-28T08:34:35;6.33;;;1.53;;
14975;SDS011;7584;60.468;25.126;2023-02-28T08:37:00;9.53;;;1.40;;
14975;SDS011;7584;60.468;25.126;2023-02-28T08:39:26;6.80;;;2.07;;
14975;SDS011;7584;60.468;25.126;2023-02-28T08:41:51;7.83;;;1.40;;
14975;SDS011;7584;60.468;25.126;2023-02-28T08:44:16;2.83;;;0.90;;
14975;SDS011;7584;60.468;25.126;2023-02-28T08:46:42;11.10;;;1.57;;
14975;SDS011;7584;60.468;25.126;2023-02-28T08:49:09;9.00;;;2.30;;
14975;SDS011;7584;60.468;25.126;2023-02-28T08:51:35;7.50;;;1.50;;
14975;SDS011;7584;60.468;25.126;2023-02-28T08:54:00;7.20;;;1.20;;
14975;SDS011;7584;60.468;25.126;2023-02-28T08:56:26;10.80;;;1.20;;
14975;SDS011;7584;60.468;25.126;2023-02-28T08:58:53;6.77;;;1.77;;
14975;SDS011;7584;60.468;25.126;2023-02-28T09:01:29;5.37;;;1.27;;
14975;SDS011;7584;60.468;25.126;2023-02-28T09:03:54;4.57;;;1.00;;
14975;SDS011;7584;60.468;25.126;2023-02-28T09:06:21;5.73;;;1.23;;
14975;SDS011;7584;60.468;25.126;2023-02-28T09:08:46;8.27;;;1.43;;
14975;SDS011;7584;60.468;25.126;2023-02-28T09:11:12;8.73;;;1.40;;
14975;SDS011;7584;60.468;25.126;2023-02-28T09:13:38;2.77;;;0.80;;
14975;SDS011;7584;60.468;25.126;2023-02-28T09:16:04;8.03;;;1.10;;
14975;SDS011;7584;60.468;25.126;2023-02-28T09:18:29;6.07;;;1.17;;
14975;SDS011;7584;60.468;25.126;2023-02-28T09:20:55;4.13;;;1.17;;
14975;SDS011;7584;60.468;25.126;2023-02-28T09:23:20;4.70;;;1.23;;
14975;SDS011;7584;60.468;25.126;2023-02-28T09:25:49;7.47;;;1.40;;
14975;SDS011;7584;60.468;25.126;2023-02-28T09:28:15;4.47;;;1.20;;
14975;SDS011;7584;60.468;25.126;2023-02-28T09:30:42;3.90;;;0.90;;
14975;SDS011;7584;60.468;25.126;2023-02-28T09:33:07;5.47;;;1.10;;
14975;SDS011;7584;60.468;25.126;2023-02-28T09:35:33;7.47;;;1.10;;
14975;SDS011;7584;60.468;25.126;2023-02-28T09:37:58;5.27;;;1.20;;
14975;SDS011;7584;60.468;25.126;2023-02-28T09:40:24;6.17;;;1.57;;
14975;SDS011;7584;60.468;25.126;2023-02-28T09:42:54;4.00;;;1.10;;
14975;SDS011;7584;60.468;25.126;2023-02-28T09:47:48;6.13;;;1.20;;
14975;SDS011;7584;60.468;25.126;2023-02-28T09:50:35;3.43;;;1.10;;
14975;SDS011;7584;60.468;25.126;2023-02-28T09:53:13;3.67;;;0.87;;
14975;SDS011;7584;60.468;25.126;2023-02-28T09:55:42;5.07;;;1.00;;
14975;SDS011;7584;60.468;25.126;2023-02-28T09:58:18;5.30;;;1.00;;
14975;SDS011;7584;60.468;25.126;2023-02-28T10:00:45;4.30;;;1.17;;
14975;SDS011;7584;60.468;25.126;2023-02-28T10:05:52;3.77;;;1.10;;
14975;SDS011;7584;60.468;25.126;2023-02-28T10:08:24;2.63;;;1.10;;
14975;SDS011;7584;60.468;25.126;2023-02-28T10:10:51;3.87;;;1.50;;
14975;SDS011;7584;60.468;25.126;2023-02-28T10:13:52;1.43;;;0.73;;
14975;SDS011;7584;60.468;25.126;2023-02-28T10:16:31;3.40;;;1.20;;
14975;SDS011;7584;60.468;25.126;2023-02-28T10:19:05;4.03;;;1.07;;
14975;SDS011;7584;60.468;25.126;2023-02-28T10:21:38;2.50;;;0.77;;
14975;SDS011;7584;60.468;25.126;2023-02-28T10:24:10;2.17;;;0.80;;
14975;SDS011;7584;60.468;25.126;2023-02-28T10:26:39;2.80;;;1.03;;
14975;SDS011;7584;60.468;25.126;2023-02-28T10:29:07;2.40;;;0.87;;
14975;SDS011;7584;60.468;25.126;2023-02-28T10:31:33;3.40;;;1.27;;
14975;SDS011;7584;60.468;25.126;2023-02-28T10:33:58;1.97;;;0.80;;
14975;SDS011;7584;60.468;25.126;2023-02-28T10:36:23;3.10;;;1.10;;
14975;SDS011;7584;60.468;25.126;2023-02-28T10:38:49;4.73;;;0.90;;
14975;SDS011;7584;60.468;25.126;2023-02-28T10:41:18;5.03;;;0.80;;
14975;SDS011;7584;60.468;25.126;2023-02-28T10:43:51;6.20;;;1.07;;
14975;SDS011;7584;60.468;25.126;2023-02-28T10:46:17;2.57;;;0.70;;
14975;SDS011;7584;60.468;25.126;2023-02-28T10:51:33;5.23;;;1.03;;
14975;SDS011;7584;60.468;25.126;2023-02-28T10:53:59;2.30;;;0.97;;
14975;SDS011;7584;60.468;25.126;2023-02-28T10:56:25;3.37;;;0.70;;
14975;SDS011;7584;60.468;25.126;2023-02-28T11:01:20;3.37;;;0.90;;
14975;SDS011;7584;60.468;25.126;2023-02-28T11:03:46;2.60;;;0.80;;
14975;SDS011;7584;60.468;25.126;2023-02-28T11:06:14;4.47;;;1.20;;
14975;SDS011;7584;60.468;25.126;2023-02-28T11:08:44;6.10;;;1.03;;
14975;SDS011;7584;60.468;25.126;2023-02-28T11:11:10;2.77;;;0.70;;
14975;SDS011;7584;60.468;25.126;2023-02-28T11:13:36;1.57;;;0.73;;
14975;SDS011;7584;60.468;25.126;2023-02-28T11:16:07;4.77;;;1.17;;
14975;SDS011;7584;60.468;25.126;2023-02-28T11:18:52;2.90;;;0.63;;
14975;SDS011;7584;60.468;25.126;2023-02-28T11:21:28;1.90;;;0.67;;
14975;SDS011;7584;60.468;25.126;2023-02-28T11:24:19;1.50;;;0.60;;
14975;SDS011;7584;60.468;25.126;2023-02-28T11:26:41;3.20;;;0.70;;
14975;SDS011;7584;60.468;25.126;2023-02-28T11:29:18;3.50;;;0.70;;
14975;SDS011;7584;60.468;25.126;2023-02-28T11:31:54;3.80;;;0.60;;
14975;SDS011;7584;60.468;25.126;2023-02-28T11:34:26;3.53;;;0.93;;
14975;SDS011;7584;60.468;25.126;2023-02-28T11:36:53;2.00;;;0.60;;
14975;SDS011;7584;60.468;25.126;2023-02-28T11:39:19;2.83;;;0.80;;
14975;SDS011;7584;60.468;25.126;2023-02-28T11:50:07;3.43;;;0.83;;
14975;SDS011;7584;60.468;25.126;2023-02-28T12:05:40;5.60;;;1.80;;
14975;SDS011;7584;60.468;25.126;2023-02-28T12:26:49;3.80;;;0.90;;
14975;SDS011;7584;60.468;25.126;2023-02-28T12:28:48;5.83;;;0.93;;
14975;SDS011;7584;60.468;25.126;2023-02-28T12:31:23;10.67;;;1.17;;
14975;SDS011;7584;60.468;25.126;2023-02-28T12:33:52;3.67;;;0.97;;
14975;SDS011;7584;60.468;25.126;2023-02-28T12:36:19;3.23;;;0.80;;
14975;SDS011;7584;60.468;25.126;2023-02-28T12:43:38;3.43;;;0.93;;
14975;SDS011;7584;60.468;25.126;2023-02-28T12:48:53;1.57;;;0.47;;
14975;SDS011;7584;60.468;25.126;2023-02-28T12:51:21;2.37;;;0.73;;
14975;SDS011;7584;60.468;25.126;2023-02-28T13:04:36;2.70;;;0.57;;
14975;SDS011;7584;60.468;25.126;2023-02-28T13:09:39;1.47;;;0.60;;
14975;SDS011;7584;60.468;25.126;2023-02-28T13:12:14;3.00;;;0.60;;
14975;SDS011;7584;60.468;25.126;2023-02-28T13:14:39;4.60;;;0.97;;
14975;SDS011;7584;60.468;25.126;2023-02-28T13:19:55;4.70;;;0.73;;
14975;SDS011;7584;60.468;25.126;2023-02-28T13:24:50;3.13;;;1.03;;
14975;SDS011;7584;60.468;25.126;2023-02-28T13:27:32;2.93;;;0.70;;
14975;SDS011;7584;60.468;25.126;2023-02-28T13:29:58;1.33;;;0.60;;
14975;SDS011;7584;60.468;25.126;2023-02-28T13:39:56;3.80;;;1.00;;
14975;SDS011;7584;60.468;25.126;2023-02-28T13:47:51;4.20;;;0.80;;
14975;SDS011;7584;60.468;25.126;2023-02-28T13:50:14;1.00;;;0.53;;
14975;SDS011;7584;60.468;25.126;2023-02-28T13:55:25;2.03;;;0.73;;
14975;SDS011;7584;60.468;25.126;2023-02-28T13:58:26;1.20;;;0.50;;
14975;SDS011;7584;60.468;25.126;2023-02-28T14:08:45;1.33;;;0.60;;
14975;SDS011;7584;60.468;25.126;2023-02-28T14:11:24;2.57;;;0.90;;
14975;SDS011;7584;60.468;25.126;2023-02-28T14:13:49;3.77;;;0.90;;
14975;SDS011;7584;60.468;25.126;2023-02-28T14:16:16;5.07;;;0.70;;
14975;SDS011;7584;60.468;25.126;2023-02-28T14:19:19;6.83;;;1.37;;
14975;SDS011;7584;60.468;25.126;2023-02-28T14:21:34;2.70;;;0.80;;
14975;SDS011;7584;60.468;25.126;2023-02-28T14:37:47;2.93;;;0.80;;
14975;SDS011;7584;60.468;25.126;2023-02-28T14:40:17;1.30;;;0.53;;
14975;SDS011;7584;60.468;25.126;2023-02-28T14:43:00;2.90;;;0.80;;
14975;SDS011;7584;60.468;25.126;2023-02-28T14:45:27;3.37;;;0.70;;
14975;SDS011;7584;60.468;25.126;2023-02-28T14:47:53;3.47;;;0.73;;
14975;SDS011;7584;60.468;25.126;2023-02-28T14:50:21;3.73;;;0.60;;
14975;SDS011;7584;60.468;25.126;2023-02-28T14:52:47;3.00;;;0.77;;
14975;SDS011;7584;60.468;25.126;2023-02-28T14:55:14;1.70;;;0.60;;
14975;SDS011;7584;60.468;25.126;2023-02-28T14:57:41;3.37;;;0.90;;
14975;SDS011;7584;60.468;25.126;2023-02-28T15:02:38;3.00;;;0.70;;
14975;SDS011;7584;60.468;25.126;2023-02-28T15:07:35;2.27;;;0.67;;
14975;SDS011;7584;60.468;25.126;2023-02-28T15:10:33;2.53;;;0.70;;
14975;SDS011;7584;60.468;25.126;2023-02-28T15:12:52;1.93;;;0.70;;
14975;SDS011;7584;60.468;25.126;2023-02-28T15:15:19;2.33;;;0.60;;
14975;SDS011;7584;60.468;25.126;2023-02-28T15:17:48;2.40;;;0.70;;
14975;SDS011;7584;60.468;25.126;2023-02-28T15:20:14;4.03;;;0.70;;
14975;SDS011;7584;60.468;25.126;2023-02-28T15:22:40;1.97;;;0.70;;
14975;SDS011;7584;60.468;25.126;2023-02-28T15:25:05;1.57;;;0.67;;
14975;SDS011;7584;60.468;25.126;2023-02-28T15:27:33;4.17;;;0.90;;
14975;SDS011;7584;60.468;25.126;2023-02-28T15:29:59;1.63;;;0.87;;
14975;SDS011;7584;60.468;25.126;2023-02-28T15:32:29;2.63;;;0.70;;
14975;SDS011;7584;60.468;25.126;2023-02-28T15:34:55;1.43;;;0.80;;
14975;SDS011;7584;60.468;25.126;2023-02-28T15:40:04;2.50;;;1.10;;
14975;SDS011;7584;60.468;25.126;2023-02-28T15:42:29;3.30;;;1.43;;
14975;SDS011;7584;60.468;25.126;2023-02-28T15:44:56;3.10;;;1.20;;
14975;SDS011;7584;60.468;25.126;2023-02-28T15:47:23;2.33;;;0.90;;
14975;SDS011;7584;60.468;25.126;2023-02-28T15:49:50;2.33;;;0.77;;
14975;SDS011;7584;60.468;25.126;2023-02-28T15:52:18;3.17;;;0.93;;
14975;SDS011;7584;60.468;25.126;2023-02-28T15:54:44;2.60;;;1.00;;
14975;SDS011;7584;60.468;25.126;2023-02-28T15:57:28;2.20;;;0.80;;
14975;SDS011;7584;60.468;25.126;2023-02-28T15:59:55;3.33;;;0.83;;
14975;SDS011;7584;60.468;25.126;2023-02-28T16:02:22;2.97;;;1.00;;
14975;SDS011;7584;60.468;25.126;2023-02-28T16:04:58;7.37;;;1.00;;
14975;SDS011;7584;60.468;25.126;2023-02-28T16:07:23;3.97;;;1.10;;
14975;SDS011;7584;60.468;25.126;2023-02-28T16:09:49;3.33;;;0.80;;
14975;SDS011;7584;60.468;25.126;2023-02-28T16:12:15;3.60;;;1.07;;
14975;SDS011;7584;60.468;25.126;2023-02-28T16:14:40;2.27;;;1.00;;
14975;SDS011;7584;60.468;25.126;2023-02-28T16:17:27;2.67;;;1.10;;
14975;SDS011;7584;60.468;25.126;2023-02-28T16:19:51;4.10;;;1.33;;
14975;SDS011;7584;60.468;25.126;2023-02-28T16:22:16;1.80;;;0.70;;
14975;SDS011;7584;60.468;25.126;2023-02-28T16:24:42;8.87;;;1.30;;
14975;SDS011;7584;60.468;25.126;2023-02-28T16:27:10;3.47;;;1.07;;
14975;SDS011;7584;60.468;25.126;2023-02-28T16:29:39;3.60;;;1.33;;
14975;SDS011;7584;60.468;25.126;2023-02-28T16:32:04;3.63;;;1.00;;
14975;SDS011;7584;60.468;25.126;2023-02-28T16:34:30;3.90;;;1.70;;
14975;SDS011;7584;60.468;25.126;2023-02-28T16:36:55;4.13;;;1.40;;
14975;SDS011;7584;60.468;25.126;2023-02-28T16:39:21;4.90;;;1.80;;
14975;SDS011;7584;60.468;25.126;2023-02-28T16:41:47;4.87;;;1.30;;
14975;SDS011;7584;60.468;25.126;2023-02-28T16:44:29;3.80;;;1.30;;
14975;SDS011;7584;60.468;25.126;2023-02-28T16:46:55;3.13;;;1.00;;
14975;SDS011;7584;60.468;25.126;2023-02-28T16:49:20;3.53;;;1.13;;
14975;SDS011;7584;60.468;25.126;2023-02-28T16:51:45;6.63;;;1.50;;
14975;SDS011;7584;60.468;25.126;2023-02-28T16:54:11;2.73;;;1.20;;
14975;SDS011;7584;60.468;25.126;2023-02-28T16:56:36;5.07;;;1.63;;
14975;SDS011;7584;60.468;25.126;2023-02-28T16:59:04;2.23;;;1.30;;
14975;SDS011;7584;60.468;25.126;2023-02-28T17:01:29;4.27;;;1.50;;
14975;SDS011;7584;60.468;25.126;2023-02-28T17:03:55;3.63;;;1.40;;
14975;SDS011;7584;60.468;25.126;2023-02-28T17:06:25;4.60;;;1.37;;
14975;SDS011;7584;60.468;25.126;2023-02-28T17:08:52;5.47;;;1.53;;
14975;SDS011;7584;60.468;25.126;2023-02-28T17:11:18;8.33;;;2.00;;
14975;SDS011;7584;60.468;25.126;2023-02-28T17:13:43;6.17;;;1.80;;
14975;SDS011;7584;60.468;25.126;2023-02-28T17:16:13;5.13;;;1.57;;
14975;SDS011;7584;60.468;25.126;2023-02-28T17:18:39;4.03;;;1.67;;
14975;SDS011;7584;60.468;25.126;2023-02-28T17:21:08;3.13;;;1.10;;
14975;SDS011;7584;60.468;25.126;2023-02-28T17:23:34;3.60;;;1.37;;
14975;SDS011;7584;60.468;25.126;2023-02-28T17:25:59;9.73;;;1.60;;
14975;SDS011;7584;60.468;25.126;2023-02-28T17:28:25;4.63;;;1.37;;
14975;SDS011;7584;60.468;25.126;2023-02-28T17:30:50;2.97;;;1.30;;
14975;SDS011;7584;60.468;25.126;2023-02-28T17:33:15;4.23;;;1.37;;